sensor_id;sensor_type;location;lat;lon;timestamp;temperature;humidity
22364;DHT22;11349;53.412;-1.328;2023-05-10T00:01:11;11.50;1.00
22364;DHT22;11349;53.412;-1.328;2023-05-10T00:03:37;11.40;1.00
22364;DHT22;11349;53.412;-1.328;2023-05-10T00:06:03;11.50;1.00
22364;DHT22;11349;53.412;-1.328;2023-05-10T00:08:28;11.40;10.10
22364;DHT22;11349;53.412;-1.328;2023-05-10T00:10:54;11.40;1.00
22364;DHT22;11349;53.412;-1.328;2023-05-10T00:13:20;11.40;1.00
22364;DHT22;11349;53.412;-1.328;2023-05-10T00:15:45;11.30;1.00
22364;DHT22;11349;53.412;-1.328;2023-05-10T00:18:11;11.40;1.00
22364;DHT22;11349;53.412;-1.328;2023-05-10T00:20:37;11.30;1.00
22364;DHT22;11349;53.412;-1.328;2023-05-10T00:23:02;11.40;1.00
22364;DHT22;11349;53.412;-1.328;2023-05-10T00:25:28;11.40;1.00
22364;DHT22;11349;53.412;-1.328;2023-05-10T00:27:54;11.30;1.00
22364;DHT22;11349;53.412;-1.328;2023-05-10T00:30:22;11.30;1.00
22364;DHT22;11349;53.412;-1.328;2023-05-10T00:32:48;11.30;1.00
22364;DHT22;11349;53.412;-1.328;2023-05-10T00:35:15;11.30;1.00
22364;DHT22;11349;53.412;-1.328;2023-05-10T00:37:41;11.30;1.00
22364;DHT22;11349;53.412;-1.328;2023-05-10T00:40:07;11.30;1.00
22364;DHT22;11349;53.412;-1.328;2023-05-10T00:42:33;11.20;1.00
22364;DHT22;11349;53.412;-1.328;2023-05-10T00:44:59;11.30;1.00
22364;DHT22;11349;53.412;-1.328;2023-05-10T00:47:24;11.20;1.00
22364;DHT22;11349;53.412;-1.328;2023-05-10T00:49:50;11.20;1.00
22364;DHT22;11349;53.412;-1.328;2023-05-10T00:52:16;11.20;1.00
22364;DHT22;11349;53.412;-1.328;2023-05-10T00:54:42;11.20;1.00
22364;DHT22;11349;53.412;-1.328;2023-05-10T00:57:08;11.10;1.00
22364;DHT22;11349;53.412;-1.328;2023-05-10T00:59:34;11.10;1.00
22364;DHT22;11349;53.412;-1.328;2023-05-10T01:02:00;11.10;1.00
22364;DHT22;11349;53.412;-1.328;2023-05-10T01:04:26;11.00;38.50
22364;DHT22;11349;53.412;-1.328;2023-05-10T01:06:53;11.00;4.10
22364;DHT22;11349;53.412;-1.328;2023-05-10T01:09:24;11.00;48.80
22364;DHT22;11349;53.412;-1.328;2023-05-10T01:11:52;11.10;18.00
22364;DHT22;11349;53.412;-1.328;2023-05-10T01:14:19;11.10;92.10
22364;DHT22;11349;53.412;-1.328;2023-05-10T01:16:46;11.00;99.90
22364;DHT22;11349;53.412;-1.328;2023-05-10T01:19:18;11.10;99.90
22364;DHT22;11349;53.412;-1.328;2023-05-10T01:21:58;11.00;99.90
22364;DHT22;11349;53.412;-1.328;2023-05-10T01:27:38;11.10;99.90
22364;DHT22;11349;53.412;-1.328;2023-05-10T01:30:37;11.20;99.90
22364;DHT22;11349;53.412;-1.328;2023-05-10T01:36:13;11.20;99.90
22364;DHT22;11349;53.412;-1.328;2023-05-10T01:38:50;11.10;99.90
22364;DHT22;11349;53.412;-1.328;2023-05-10T01:44:01;11.10;99.90
22364;DHT22;11349;53.412;-1.328;2023-05-10T01:46:34;11.10;99.90
22364;DHT22;11349;53.412;-1.328;2023-05-10T01:49:02;11.10;99.90
22364;DHT22;11349;53.412;-1.328;2023-05-10T01:51:37;11.10;99.90
22364;DHT22;11349;53.412;-1.328;2023-05-10T01:54:05;11.00;99.90
22364;DHT22;11349;53.412;-1.328;2023-05-10T01:56:33;11.00;99.90
22364;DHT22;11349;53.412;-1.328;2023-05-10T01:59:03;11.00;99.90
22364;DHT22;11349;53.412;-1.328;2023-05-10T02:01:31;10.90;99.90
22364;DHT22;11349;53.412;-1.328;2023-05-10T02:03:59;10.90;1.00
22364;DHT22;11349;53.412;-1.328;2023-05-10T02:06:26;10.90;1.00
22364;DHT22;11349;53.412;-1.328;2023-05-10T02:08:53;10.80;1.00
22364;DHT22;11349;53.412;-1.328;2023-05-10T02:11:19;10.80;1.00
22364;DHT22;11349;53.412;-1.328;2023-05-10T02:13:47;10.70;1.00
22364;DHT22;11349;53.412;-1.328;2023-05-10T02:16:15;10.70;1.00
22364;DHT22;11349;53.412;-1.328;2023-05-10T02:18:42;10.60;1.00
22364;DHT22;11349;53.412;-1.328;2023-05-10T02:21:10;10.60;1.00
22364;DHT22;11349;53.412;-1.328;2023-05-10T02:23:36;10.50;1.00
22364;DHT22;11349;53.412;-1.328;2023-05-10T02:26:02;10.40;1.00
22364;DHT22;11349;53.412;-1.328;2023-05-10T02:28:31;10.40;1.00
22364;DHT22;11349;53.412;-1.328;2023-05-10T02:30:58;10.40;1.00
22364;DHT22;11349;53.412;-1.328;2023-05-10T02:33:24;10.50;1.00
22364;DHT22;11349;53.412;-1.328;2023-05-10T02:35:51;10.50;11.10
22364;DHT22;11349;53.412;-1.328;2023-05-10T02:38:19;10.50;36.50
22364;DHT22;11349;53.412;-1.328;2023-05-10T02:40:46;10.50;50.50
22364;DHT22;11349;53.412;-1.328;2023-05-10T02:43:14;10.50;77.00
22364;DHT22;11349;53.412;-1.328;2023-05-10T02:45:43;10.60;54.10
22364;DHT22;11349;53.412;-1.328;2023-05-10T02:48:09;10.60;99.90
22364;DHT22;11349;53.412;-1.328;2023-05-10T02:50:36;10.60;99.90
22364;DHT22;11349;53.412;-1.328;2023-05-10T02:53:09;10.60;99.90
22364;DHT22;11349;53.412;-1.328;2023-05-10T02:55:40;10.60;99.90
22364;DHT22;11349;53.412;-1.328;2023-05-10T02:58:06;10.60;99.90
22364;DHT22;11349;53.412;-1.328;2023-05-10T03:00:32;10.60;99.90
22364;DHT22;11349;53.412;-1.328;2023-05-10T03:02:58;10.50;99.90
22364;DHT22;11349;53.412;-1.328;2023-05-10T03:05:23;10.40;99.90
22364;DHT22;11349;53.412;-1.328;2023-05-10T03:07:50;10.40;99.90
22364;DHT22;11349;53.412;-1.328;2023-05-10T03:10:17;10.30;99.90
22364;DHT22;11349;53.412;-1.328;2023-05-10T03:18:29;10.30;99.90
22364;DHT22;11349;53.412;-1.328;2023-05-10T03:20:59;10.40;99.90
22364;DHT22;11349;53.412;-1.328;2023-05-10T03:26:04;10.30;99.90
22364;DHT22;11349;53.412;-1.328;2023-05-10T03:28:31;10.30;99.90
22364;DHT22;11349;53.412;-1.328;2023-05-10T03:30:59;10.20;99.90
22364;DHT22;11349;53.412;-1.328;2023-05-10T03:33:25;10.20;99.90
22364;DHT22;11349;53.412;-1.328;2023-05-10T03:35:50;10.20;99.90
22364;DHT22;11349;53.412;-1.328;2023-05-10T03:38:16;10.20;99.90
22364;DHT22;11349;53.412;-1.328;2023-05-10T03:40:42;10.10;99.90
22364;DHT22;11349;53.412;-1.328;2023-05-10T03:43:07;10.10;99.90
22364;DHT22;11349;53.412;-1.328;2023-05-10T03:45:33;10.00;99.90
22364;DHT22;11349;53.412;-1.328;2023-05-10T03:47:59;10.00;99.90
22364;DHT22;11349;53.412;-1.328;2023-05-10T03:50:25;10.00;99.90
22364;DHT22;11349;53.412;-1.328;2023-05-10T03:52:52;9.90;99.90
22364;DHT22;11349;53.412;-1.328;2023-05-10T03:55:17;9.90;99.90
22364;DHT22;11349;53.412;-1.328;2023-05-10T03:57:43;10.00;99.90
22364;DHT22;11349;53.412;-1.328;2023-05-10T04:00:10;9.90;99.90
22364;DHT22;11349;53.412;-1.328;2023-05-10T04:02:38;9.90;99.90
22364;DHT22;11349;53.412;-1.328;2023-05-10T04:05:04;9.90;99.90
22364;DHT22;11349;53.412;-1.328;2023-05-10T04:07:30;9.90;99.90
22364;DHT22;11349;53.412;-1.328;2023-05-10T04:09:56;9.90;99.90
22364;DHT22;11349;53.412;-1.328;2023-05-10T04:12:21;9.90;99.90
22364;DHT22;11349;53.412;-1.328;2023-05-10T04:14:47;9.90;99.90
22364;DHT22;11349;53.412;-1.328;2023-05-10T04:17:13;9.90;99.90
22364;DHT22;11349;53.412;-1.328;2023-05-10T04:19:38;9.90;99.90
22364;DHT22;11349;53.412;-1.328;2023-05-10T04:22:05;9.90;99.90
22364;DHT22;11349;53.412;-1.328;2023-05-10T04:24:30;9.90;99.90
22364;DHT22;11349;53.412;-1.328;2023-05-10T04:26:56;9.80;99.90
22364;DHT22;11349;53.412;-1.328;2023-05-10T04:29:22;9.80;99.90
22364;DHT22;11349;53.412;-1.328;2023-05-10T04:31:47;9.80;99.90
22364;DHT22;11349;53.412;-1.328;2023-05-10T04:34:14;9.80;99.90
22364;DHT22;11349;53.412;-1.328;2023-05-10T04:36:40;9.80;99.90
22364;DHT22;11349;53.412;-1.328;2023-05-10T04:39:05;9.90;99.90
22364;DHT22;11349;53.412;-1.328;2023-05-10T04:41:31;9.80;99.90
22364;DHT22;11349;53.412;-1.328;2023-05-10T04:43:57;9.90;99.90
22364;DHT22;11349;53.412;-1.328;2023-05-10T04:46:22;9.80;99.90
22364;DHT22;11349;53.412;-1.328;2023-05-10T04:48:48;9.90;99.90
22364;DHT22;11349;53.412;-1.328;2023-05-10T04:51:14;9.90;99.90
22364;DHT22;11349;53.412;-1.328;2023-05-10T04:53:40;9.90;99.90
22364;DHT22;11349;53.412;-1.328;2023-05-10T04:56:06;9.80;99.90
22364;DHT22;11349;53.412;-1.328;2023-05-10T04:58:32;9.90;99.90
22364;DHT22;11349;53.412;-1.328;2023-05-10T05:01:05;9.90;99.90
22364;DHT22;11349;53.412;-1.328;2023-05-10T05:03:31;10.00;99.90
22364;DHT22;11349;53.412;-1.328;2023-05-10T05:05:58;10.00;99.90
22364;DHT22;11349;53.412;-1.328;2023-05-10T05:08:23;10.00;99.90
22364;DHT22;11349;53.412;-1.328;2023-05-10T05:10:49;10.10;99.90
22364;DHT22;11349;53.412;-1.328;2023-05-10T05:13:15;10.10;99.90
22364;DHT22;11349;53.412;-1.328;2023-05-10T05:15:44;10.10;99.90
22364;DHT22;11349;53.412;-1.328;2023-05-10T05:18:10;10.10;99.90
22364;DHT22;11349;53.412;-1.328;2023-05-10T05:20:35;10.10;99.90
22364;DHT22;11349;53.412;-1.328;2023-05-10T05:23:01;10.20;99.90
22364;DHT22;11349;53.412;-1.328;2023-05-10T05:25:27;10.20;99.90
22364;DHT22;11349;53.412;-1.328;2023-05-10T05:27:52;10.20;99.90
22364;DHT22;11349;53.412;-1.328;2023-05-10T05:30:18;10.20;99.90
22364;DHT22;11349;53.412;-1.328;2023-05-10T05:32:44;10.20;99.90
22364;DHT22;11349;53.412;-1.328;2023-05-10T05:35:10;10.30;99.90
22364;DHT22;11349;53.412;-1.328;2023-05-10T05:37:39;10.30;99.90
22364;DHT22;11349;53.412;-1.328;2023-05-10T05:40:05;10.30;99.90
22364;DHT22;11349;53.412;-1.328;2023-05-10T05:42:31;10.40;99.90
22364;DHT22;11349;53.412;-1.328;2023-05-10T05:44:57;10.40;99.90
22364;DHT22;11349;53.412;-1.328;2023-05-10T05:47:23;10.40;99.90
22364;DHT22;11349;53.412;-1.328;2023-05-10T05:49:48;10.50;99.90
22364;DHT22;11349;53.412;-1.328;2023-05-10T05:52:14;10.60;99.90
22364;DHT22;11349;53.412;-1.328;2023-05-10T05:54:40;10.70;99.90
22364;DHT22;11349;53.412;-1.328;2023-05-10T05:57:06;10.80;99.90
22364;DHT22;11349;53.412;-1.328;2023-05-10T05:59:31;10.80;99.90
22364;DHT22;11349;53.412;-1.328;2023-05-10T06:01:57;10.90;1.00
22364;DHT22;11349;53.412;-1.328;2023-05-10T06:04:23;11.00;1.00
22364;DHT22;11349;53.412;-1.328;2023-05-10T06:06:48;11.30;99.90
22364;DHT22;11349;53.412;-1.328;2023-05-10T06:09:14;11.60;99.90
22364;DHT22;11349;53.412;-1.328;2023-05-10T06:11:41;11.70;99.90
22364;DHT22;11349;53.412;-1.328;2023-05-10T06:14:07;11.70;99.90
22364;DHT22;11349;53.412;-1.328;2023-05-10T06:16:34;11.80;99.90
22364;DHT22;11349;53.412;-1.328;2023-05-10T06:18:59;11.90;99.90
22364;DHT22;11349;53.412;-1.328;2023-05-10T06:21:25;12.00;99.90
22364;DHT22;11349;53.412;-1.328;2023-05-10T06:23:51;12.00;99.90
22364;DHT22;11349;53.412;-1.328;2023-05-10T06:26:16;12.00;99.90
22364;DHT22;11349;53.412;-1.328;2023-05-10T06:28:42;12.00;1.00
22364;DHT22;11349;53.412;-1.328;2023-05-10T06:31:08;12.00;1.00
22364;DHT22;11349;53.412;-1.328;2023-05-10T06:33:34;12.00;1.00
22364;DHT22;11349;53.412;-1.328;2023-05-10T06:36:00;12.00;1.00
22364;DHT22;11349;53.412;-1.328;2023-05-10T06:38:26;12.10;1.00
22364;DHT22;11349;53.412;-1.328;2023-05-10T06:40:51;12.20;99.90
22364;DHT22;11349;53.412;-1.328;2023-05-10T06:43:17;12.20;99.90
22364;DHT22;11349;53.412;-1.328;2023-05-10T06:45:43;12.30;99.90
22364;DHT22;11349;53.412;-1.328;2023-05-10T06:48:09;12.60;99.90
22364;DHT22;11349;53.412;-1.328;2023-05-10T06:50:34;13.20;99.90
22364;DHT22;11349;53.412;-1.328;2023-05-10T06:53:00;13.80;1.00
22364;DHT22;11349;53.412;-1.328;2023-05-10T06:55:27;14.40;1.00
22364;DHT22;11349;53.412;-1.328;2023-05-10T06:57:53;14.90;99.90
22364;DHT22;11349;53.412;-1.328;2023-05-10T07:00:19;15.60;99.90
22364;DHT22;11349;53.412;-1.328;2023-05-10T07:02:46;16.00;24.80
22364;DHT22;11349;53.412;-1.328;2023-05-10T07:05:12;16.80;99.90
22364;DHT22;11349;53.412;-1.328;2023-05-10T07:07:38;17.40;1.00
22364;DHT22;11349;53.412;-1.328;2023-05-10T07:10:04;17.90;99.90
22364;DHT22;11349;53.412;-1.328;2023-05-10T07:12:30;17.90;1.00
22364;DHT22;11349;53.412;-1.328;2023-05-10T07:14:55;18.20;99.90
22364;DHT22;11349;53.412;-1.328;2023-05-10T07:17:21;18.50;99.90
22364;DHT22;11349;53.412;-1.328;2023-05-10T07:19:47;19.10;99.90
22364;DHT22;11349;53.412;-1.328;2023-05-10T07:22:13;19.50;99.90
22364;DHT22;11349;53.412;-1.328;2023-05-10T07:24:38;19.90;99.90
22364;DHT22;11349;53.412;-1.328;2023-05-10T07:27:04;20.30;99.90
22364;DHT22;11349;53.412;-1.328;2023-05-10T07:29:30;20.60;1.00
22364;DHT22;11349;53.412;-1.328;2023-05-10T07:31:55;21.00;99.90
22364;DHT22;11349;53.412;-1.328;2023-05-10T07:34:21;21.40;99.90
22364;DHT22;11349;53.412;-1.328;2023-05-10T07:36:47;21.70;1.00
22364;DHT22;11349;53.412;-1.328;2023-05-10T07:39:13;21.50;99.90
22364;DHT22;11349;53.412;-1.328;2023-05-10T07:41:38;21.50;99.90
22364;DHT22;11349;53.412;-1.328;2023-05-10T07:44:05;21.80;99.90
22364;DHT22;11349;53.412;-1.328;2023-05-10T07:46:31;22.10;99.90
22364;DHT22;11349;53.412;-1.328;2023-05-10T07:48:57;22.60;99.90
22364;DHT22;11349;53.412;-1.328;2023-05-10T07:51:22;22.90;98.00
22364;DHT22;11349;53.412;-1.328;2023-05-10T07:53:48;23.10;99.90
22364;DHT22;11349;53.412;-1.328;2023-05-10T07:56:28;22.80;1.00
22364;DHT22;11349;53.412;-1.328;2023-05-10T07:59:02;22.60;1.00
22364;DHT22;11349;53.412;-1.328;2023-05-10T08:01:33;22.20;1.00
22364;DHT22;11349;53.412;-1.328;2023-05-10T08:04:00;23.20;1.00
22364;DHT22;11349;53.412;-1.328;2023-05-10T08:06:27;23.80;99.90
22364;DHT22;11349;53.412;-1.328;2023-05-10T08:08:55;24.30;20.60
22364;DHT22;11349;53.412;-1.328;2023-05-10T08:11:21;24.40;33.50
22364;DHT22;11349;53.412;-1.328;2023-05-10T08:13:49;24.50;1.00
22364;DHT22;11349;53.412;-1.328;2023-05-10T08:16:15;24.60;1.00
22364;DHT22;11349;53.412;-1.328;2023-05-10T08:18:45;23.50;99.90
22364;DHT22;11349;53.412;-1.328;2023-05-10T08:21:12;22.90;99.90
22364;DHT22;11349;53.412;-1.328;2023-05-10T08:23:39;23.20;1.00
22364;DHT22;11349;53.412;-1.328;2023-05-10T08:26:05;23.40;1.00
22364;DHT22;11349;53.412;-1.328;2023-05-10T08:28:31;24.00;1.00
22364;DHT22;11349;53.412;-1.328;2023-05-10T08:30:56;24.10;99.90
22364;DHT22;11349;53.412;-1.328;2023-05-10T08:33:22;24.10;99.90
22364;DHT22;11349;53.412;-1.328;2023-05-10T08:35:48;23.70;99.90
22364;DHT22;11349;53.412;-1.328;2023-05-10T08:38:15;24.00;1.00
22364;DHT22;11349;53.412;-1.328;2023-05-10T08:40:42;23.50;1.00
22364;DHT22;11349;53.412;-1.328;2023-05-10T08:43:10;23.60;99.90
22364;DHT22;11349;53.412;-1.328;2023-05-10T08:45:43;23.10;99.90
22364;DHT22;11349;53.412;-1.328;2023-05-10T08:48:12;23.30;99.90
22364;DHT22;11349;53.412;-1.328;2023-05-10T08:50:39;23.70;99.90
22364;DHT22;11349;53.412;-1.328;2023-05-10T08:53:09;23.90;99.90
22364;DHT22;11349;53.412;-1.328;2023-05-10T08:55:35;23.70;99.90
22364;DHT22;11349;53.412;-1.328;2023-05-10T08:58:08;23.70;99.90
22364;DHT22;11349;53.412;-1.328;2023-05-10T09:00:37;23.10;1.00
22364;DHT22;11349;53.412;-1.328;2023-05-10T09:03:05;22.70;1.00
22364;DHT22;11349;53.412;-1.328;2023-05-10T09:05:31;23.30;99.90
22364;DHT22;11349;53.412;-1.328;2023-05-10T09:07:57;23.60;99.90
22364;DHT22;11349;53.412;-1.328;2023-05-10T09:10:25;23.20;1.00
22364;DHT22;11349;53.412;-1.328;2023-05-10T09:12:53;23.20;99.90
22364;DHT22;11349;53.412;-1.328;2023-05-10T09:15:21;22.60;1.00
22364;DHT22;11349;53.412;-1.328;2023-05-10T09:17:47;23.30;82.10
22364;DHT22;11349;53.412;-1.328;2023-05-10T09:20:14;23.30;30.00
22364;DHT22;11349;53.412;-1.328;2023-05-10T09:22:40;23.50;99.90
22364;DHT22;11349;53.412;-1.328;2023-05-10T09:25:11;23.50;99.90
22364;DHT22;11349;53.412;-1.328;2023-05-10T09:27:38;23.90;99.90
22364;DHT22;11349;53.412;-1.328;2023-05-10T09:30:05;23.80;99.90
22364;DHT22;11349;53.412;-1.328;2023-05-10T09:32:42;23.50;99.90
22364;DHT22;11349;53.412;-1.328;2023-05-10T09:35:16;23.50;99.90
22364;DHT22;11349;53.412;-1.328;2023-05-10T09:37:44;23.30;99.90
22364;DHT22;11349;53.412;-1.328;2023-05-10T09:40:13;22.90;1.00
22364;DHT22;11349;53.412;-1.328;2023-05-10T09:42:41;22.90;99.90
22364;DHT22;11349;53.412;-1.328;2023-05-10T09:45:08;23.20;99.90
22364;DHT22;11349;53.412;-1.328;2023-05-10T09:47:34;23.20;1.00
22364;DHT22;11349;53.412;-1.328;2023-05-10T09:50:01;23.30;99.90
22364;DHT22;11349;53.412;-1.328;2023-05-10T09:55:18;22.90;1.00
22364;DHT22;11349;53.412;-1.328;2023-05-10T09:57:44;22.70;1.00
22364;DHT22;11349;53.412;-1.328;2023-05-10T10:00:10;22.70;1.00
22364;DHT22;11349;53.412;-1.328;2023-05-10T10:02:36;22.70;1.00
22364;DHT22;11349;53.412;-1.328;2023-05-10T10:05:02;22.40;1.00
22364;DHT22;11349;53.412;-1.328;2023-05-10T10:07:31;22.20;1.00
22364;DHT22;11349;53.412;-1.328;2023-05-10T10:09:58;22.40;1.00
22364;DHT22;11349;53.412;-1.328;2023-05-10T10:12:25;22.30;99.90
22364;DHT22;11349;53.412;-1.328;2023-05-10T10:14:51;22.00;1.00
22364;DHT22;11349;53.412;-1.328;2023-05-10T10:17:17;22.30;99.90
22364;DHT22;11349;53.412;-1.328;2023-05-10T10:19:43;22.30;99.90
22364;DHT22;11349;53.412;-1.328;2023-05-10T10:22:10;22.10;1.00
22364;DHT22;11349;53.412;-1.328;2023-05-10T10:24:38;22.10;99.90
22364;DHT22;11349;53.412;-1.328;2023-05-10T10:35:40;21.80;1.00
22364;DHT22;11349;53.412;-1.328;2023-05-10T10:38:11;21.70;1.00
22364;DHT22;11349;53.412;-1.328;2023-05-10T10:40:37;21.70;99.90
22364;DHT22;11349;53.412;-1.328;2023-05-10T10:43:23;21.90;1.00
22364;DHT22;11349;53.412;-1.328;2023-05-10T10:48:37;21.90;1.00
22364;DHT22;11349;53.412;-1.328;2023-05-10T10:51:03;21.70;1.00
22364;DHT22;11349;53.412;-1.328;2023-05-10T10:53:29;21.70;1.00
22364;DHT22;11349;53.412;-1.328;2023-05-10T10:56:06;21.70;1.00
22364;DHT22;11349;53.412;-1.328;2023-05-10T10:58:33;21.50;99.90
22364;DHT22;11349;53.412;-1.328;2023-05-10T11:01:17;21.80;1.00
22364;DHT22;11349;53.412;-1.328;2023-05-10T11:06:31;21.60;1.00
22364;DHT22;11349;53.412;-1.328;2023-05-10T11:08:58;21.70;99.90
22364;DHT22;11349;53.412;-1.328;2023-05-10T11:11:23;21.90;99.90
22364;DHT22;11349;53.412;-1.328;2023-05-10T11:13:50;21.90;99.90
22364;DHT22;11349;53.412;-1.328;2023-05-10T11:19:07;21.90;1.00
22364;DHT22;11349;53.412;-1.328;2023-05-10T11:21:34;21.80;99.90
22364;DHT22;11349;53.412;-1.328;2023-05-10T11:24:14;21.90;99.90
22364;DHT22;11349;53.412;-1.328;2023-05-10T11:26:40;21.80;1.00
22364;DHT22;11349;53.412;-1.328;2023-05-10T11:29:06;21.80;99.90
22364;DHT22;11349;53.412;-1.328;2023-05-10T11:31:32;21.70;92.20
22364;DHT22;11349;53.412;-1.328;2023-05-10T11:33:59;21.80;1.00
22364;DHT22;11349;53.412;-1.328;2023-05-10T11:36:27;21.80;1.00
22364;DHT22;11349;53.412;-1.328;2023-05-10T11:38:54;21.70;1.00
22364;DHT22;11349;53.412;-1.328;2023-05-10T11:41:21;21.60;1.00
22364;DHT22;11349;53.412;-1.328;2023-05-10T11:43:49;21.60;1.00
22364;DHT22;11349;53.412;-1.328;2023-05-10T11:46:15;21.60;46.50
22364;DHT22;11349;53.412;-1.328;2023-05-10T11:48:42;21.60;1.00
22364;DHT22;11349;53.412;-1.328;2023-05-10T11:51:09;21.60;45.30
22364;DHT22;11349;53.412;-1.328;2023-05-10T11:53:35;21.60;1.00
22364;DHT22;11349;53.412;-1.328;2023-05-10T11:56:07;21.30;99.90
22364;DHT22;11349;53.412;-1.328;2023-05-10T11:58:33;21.20;99.90
22364;DHT22;11349;53.412;-1.328;2023-05-10T12:01:00;21.50;99.90
22364;DHT22;11349;53.412;-1.328;2023-05-10T12:03:29;21.50;57.80
22364;DHT22;11349;53.412;-1.328;2023-05-10T12:05:56;21.60;99.90
22364;DHT22;11349;53.412;-1.328;2023-05-10T12:08:26;21.60;1.00
22364;DHT22;11349;53.412;-1.328;2023-05-10T12:11:03;21.60;1.00
22364;DHT22;11349;53.412;-1.328;2023-05-10T12:13:29;21.60;99.90
22364;DHT22;11349;53.412;-1.328;2023-05-10T12:15:57;21.30;1.00
22364;DHT22;11349;53.412;-1.328;2023-05-10T12:18:24;21.60;99.90
22364;DHT22;11349;53.412;-1.328;2023-05-10T12:20:52;21.60;1.00
22364;DHT22;11349;53.412;-1.328;2023-05-10T12:23:20;21.60;1.00
22364;DHT22;11349;53.412;-1.328;2023-05-10T12:25:46;21.60;99.90
22364;DHT22;11349;53.412;-1.328;2023-05-10T12:28:12;21.50;99.90
22364;DHT22;11349;53.412;-1.328;2023-05-10T12:30:38;21.30;99.90
22364;DHT22;11349;53.412;-1.328;2023-05-10T12:33:14;21.30;99.90
22364;DHT22;11349;53.412;-1.328;2023-05-10T12:35:50;20.80;1.00
22364;DHT22;11349;53.412;-1.328;2023-05-10T12:38:45;20.60;49.70
22364;DHT22;11349;53.412;-1.328;2023-05-10T12:41:16;20.10;99.90
22364;DHT22;11349;53.412;-1.328;2023-05-10T12:43:42;19.90;1.00
22364;DHT22;11349;53.412;-1.328;2023-05-10T12:46:17;19.90;99.90
22364;DHT22;11349;53.412;-1.328;2023-05-10T12:48:44;19.80;99.90
22364;DHT22;11349;53.412;-1.328;2023-05-10T12:51:10;19.60;43.90
22364;DHT22;11349;53.412;-1.328;2023-05-10T12:53:42;19.20;99.90
22364;DHT22;11349;53.412;-1.328;2023-05-10T12:56:08;19.10;1.00
22364;DHT22;11349;53.412;-1.328;2023-05-10T12:58:34;18.80;92.70
22364;DHT22;11349;53.412;-1.328;2023-05-10T13:01:01;18.90;1.00
22364;DHT22;11349;53.412;-1.328;2023-05-10T13:03:27;19.30;99.90
22364;DHT22;11349;53.412;-1.328;2023-05-10T13:05:52;18.80;99.90
22364;DHT22;11349;53.412;-1.328;2023-05-10T13:08:18;18.60;1.00
22364;DHT22;11349;53.412;-1.328;2023-05-10T13:10:44;18.20;99.90
22364;DHT22;11349;53.412;-1.328;2023-05-10T13:13:09;17.70;99.90
22364;DHT22;11349;53.412;-1.328;2023-05-10T13:15:35;17.50;1.00
22364;DHT22;11349;53.412;-1.328;2023-05-10T13:18:01;17.30;1.00
22364;DHT22;11349;53.412;-1.328;2023-05-10T13:20:27;17.10;42.90
22364;DHT22;11349;53.412;-1.328;2023-05-10T13:22:53;16.80;99.90
22364;DHT22;11349;53.412;-1.328;2023-05-10T13:25:19;16.90;99.90
22364;DHT22;11349;53.412;-1.328;2023-05-10T13:27:45;17.20;1.00
22364;DHT22;11349;53.412;-1.328;2023-05-10T13:30:11;17.30;99.90
22364;DHT22;11349;53.412;-1.328;2023-05-10T13:32:37;17.40;1.00
22364;DHT22;11349;53.412;-1.328;2023-05-10T13:35:03;17.50;99.90
22364;DHT22;11349;53.412;-1.328;2023-05-10T13:37:30;17.60;99.90
22364;DHT22;11349;53.412;-1.328;2023-05-10T13:39:56;18.10;99.90
22364;DHT22;11349;53.412;-1.328;2023-05-10T13:42:22;18.10;1.00
22364;DHT22;11349;53.412;-1.328;2023-05-10T13:44:49;17.40;1.00
22364;DHT22;11349;53.412;-1.328;2023-05-10T13:47:15;17.70;99.90
22364;DHT22;11349;53.412;-1.328;2023-05-10T13:49:41;18.40;99.90
22364;DHT22;11349;53.412;-1.328;2023-05-10T13:52:09;19.00;1.00
22364;DHT22;11349;53.412;-1.328;2023-05-10T13:54:38;19.40;99.90
22364;DHT22;11349;53.412;-1.328;2023-05-10T13:57:04;19.70;1.00
22364;DHT22;11349;53.412;-1.328;2023-05-10T13:59:30;19.80;1.00
22364;DHT22;11349;53.412;-1.328;2023-05-10T14:01:59;19.90;1.00
22364;DHT22;11349;53.412;-1.328;2023-05-10T14:04:28;19.90;1.00
22364;DHT22;11349;53.412;-1.328;2023-05-10T14:06:54;19.90;1.00
22364;DHT22;11349;53.412;-1.328;2023-05-10T14:09:19;19.50;99.90
22364;DHT22;11349;53.412;-1.328;2023-05-10T14:11:45;18.90;1.00
22364;DHT22;11349;53.412;-1.328;2023-05-10T14:14:12;17.70;1.00
22364;DHT22;11349;53.412;-1.328;2023-05-10T14:16:42;17.40;99.90
22364;DHT22;11349;53.412;-1.328;2023-05-10T14:19:08;17.20;99.90
22364;DHT22;11349;53.412;-1.328;2023-05-10T14:21:34;17.50;1.00
22364;DHT22;11349;53.412;-1.328;2023-05-10T14:24:00;17.70;99.90
22364;DHT22;11349;53.412;-1.328;2023-05-10T14:26:26;17.30;99.90
22364;DHT22;11349;53.412;-1.328;2023-05-10T14:28:51;17.50;17.50
22364;DHT22;11349;53.412;-1.328;2023-05-10T14:31:17;17.70;1.00
22364;DHT22;11349;53.412;-1.328;2023-05-10T14:33:46;17.80;1.00
22364;DHT22;11349;53.412;-1.328;2023-05-10T14:36:11;17.30;1.00
22364;DHT22;11349;53.412;-1.328;2023-05-10T14:38:38;17.10;99.90
22364;DHT22;11349;53.412;-1.328;2023-05-10T14:41:04;17.60;99.90
22364;DHT22;11349;53.412;-1.328;2023-05-10T14:43:30;17.70;1.00
22364;DHT22;11349;53.412;-1.328;2023-05-10T14:45:59;18.30;99.90
22364;DHT22;11349;53.412;-1.328;2023-05-10T14:48:25;18.60;1.00
22364;DHT22;11349;53.412;-1.328;2023-05-10T14:50:50;18.90;99.90
22364;DHT22;11349;53.412;-1.328;2023-05-10T14:53:18;19.00;99.90
22364;DHT22;11349;53.412;-1.328;2023-05-10T14:55:43;19.20;99.90
22364;DHT22;11349;53.412;-1.328;2023-05-10T14:58:09;19.20;92.90
22364;DHT22;11349;53.412;-1.328;2023-05-10T15:00:35;19.40;1.00
22364;DHT22;11349;53.412;-1.328;2023-05-10T15:03:01;19.40;99.90
22364;DHT22;11349;53.412;-1.328;2023-05-10T15:05:27;19.60;99.90
22364;DHT22;11349;53.412;-1.328;2023-05-10T15:07:53;19.70;99.90
22364;DHT22;11349;53.412;-1.328;2023-05-10T15:10:18;19.40;1.00
22364;DHT22;11349;53.412;-1.328;2023-05-10T15:12:44;19.00;99.90
22364;DHT22;11349;53.412;-1.328;2023-05-10T15:15:10;18.90;1.00
22364;DHT22;11349;53.412;-1.328;2023-05-10T15:17:35;18.70;1.00
22364;DHT22;11349;53.412;-1.328;2023-05-10T15:20:02;18.90;1.00
22364;DHT22;11349;53.412;-1.328;2023-05-10T15:22:31;18.90;1.00
22364;DHT22;11349;53.412;-1.328;2023-05-10T15:24:59;19.10;99.90
22364;DHT22;11349;53.412;-1.328;2023-05-10T15:27:25;19.30;99.90
22364;DHT22;11349;53.412;-1.328;2023-05-10T15:29:52;19.40;1.00
22364;DHT22;11349;53.412;-1.328;2023-05-10T15:32:18;19.60;1.00
22364;DHT22;11349;53.412;-1.328;2023-05-10T15:34:43;19.60;1.00
22364;DHT22;11349;53.412;-1.328;2023-05-10T15:37:09;19.60;1.00
22364;DHT22;11349;53.412;-1.328;2023-05-10T15:39:35;19.70;99.90
22364;DHT22;11349;53.412;-1.328;2023-05-10T15:42:01;19.40;99.90
22364;DHT22;11349;53.412;-1.328;2023-05-10T15:44:26;19.50;99.90
22364;DHT22;11349;53.412;-1.328;2023-05-10T15:46:52;19.70;1.00
22364;DHT22;11349;53.412;-1.328;2023-05-10T15:49:18;19.70;1.00
22364;DHT22;11349;53.412;-1.328;2023-05-10T15:51:43;19.70;1.00
22364;DHT22;11349;53.412;-1.328;2023-05-10T15:54:09;19.50;99.90
22364;DHT22;11349;53.412;-1.328;2023-05-10T15:56:35;19.70;25.50
22364;DHT22;11349;53.412;-1.328;2023-05-10T15:59:01;19.90;1.00